Flight Briefing for CPX425

Departure Arrival
Miami International Airport (KMIA)
Click to view FAA NOTAMS
Washington Dulles International Airport (KIAD)
Click to view FAA NOTAMS
Departure Time Arrival Time
N/A N/A
Aircraft Distance
B757-200SF 894nm
Departure METAR Arrival METAR
KMIA 250153Z 05009KT 10SM FEW040 26/18 A3008 RMK AO2 SLP186 T02610183 KIAD 250152Z 03006KT 10SM SCT095 SCT250 23/11 A3009 RMK AO2 SLP187 T02330106
Suggested Route
HEDLY2 HEDLY ORL J53 CRG J55 SAV FLO J207 RDU DORRN CAVLR3


View recent IFR Routes data
Notes



Charts and Procedures

Charts for KMIA
No chart available
Charts for KIAD
No chart available

Windy.com Weather Map